Time;durP1;ratioP1;P1;durP2;ratioP2;P2;SDS_P1;SDS_P2;PMS_P1;PMS_P2;Temp;Humidity;BMP_temperature;BMP_pressure;BME280_temperature;BME280_humidity;BME280_pressure;Samples;Min_cycle;Max_cycle;Signal;HPM_P1;HPM_P2
2023/06/29 00:00:41;;;;;;;38.72;26.58;;;18.00;99.90;;;;;;5059400;28;20551;-56
2023/06/29 00:03:06;;;;;;;37.17;26.73;;;18.10;99.90;;;;;;5060405;28;20100;-56
2023/06/29 00:05:32;;;;;;;40.10;27.20;;;18.10;99.90;;;;;;5059677;28;20071;-56
2023/06/29 00:07:59;;;;;;;42.30;27.70;;;18.10;99.90;;;;;;5060259;28;20136;-56
2023/06/29 00:10:25;;;;;;;41.10;27.58;;;18.20;99.90;;;;;;5060471;28;20045;-56
2023/06/29 00:12:51;;;;;;;45.00;28.30;;;18.00;99.90;;;;;;5059824;28;20067;-56
2023/06/29 00:15:17;;;;;;;43.30;28.90;;;18.00;99.90;;;;;;5062963;28;20172;-56
2023/06/29 00:17:47;;;;;;;49.42;29.90;;;17.90;99.90;;;;;;5079297;28;20175;-56
2023/06/29 00:20:14;;;;;;;44.15;29.25;;;18.10;99.90;;;;;;5080323;28;20108;-56
2023/06/29 00:22:47;;;;;;;39.50;27.17;;;18.20;99.90;;;;;;5079537;28;20056;-56
2023/06/29 00:25:14;;;;;;;39.58;27.25;;;18.20;99.90;;;;;;5080369;28;20045;-56
2023/06/29 00:27:40;;;;;;;44.13;29.20;;;18.10;99.90;;;;;;5080083;28;20064;-56
2023/06/29 00:30:06;;;;;;;43.05;28.77;;;18.00;99.90;;;;;;5079394;28;20066;-56
2023/06/29 00:32:32;;;;;;;44.70;30.60;;;18.00;99.90;;;;;;5079799;28;20123;-56
2023/06/29 00:34:58;;;;;;;42.88;29.55;;;18.20;99.90;;;;;;5078989;28;20039;-56
2023/06/29 00:37:24;;;;;;;44.55;29.85;;;18.00;99.90;;;;;;5076632;28;20630;-56
2023/06/29 00:39:49;;;;;;;47.58;30.15;;;18.20;99.90;;;;;;5070961;28;20089;-56
2023/06/29 00:42:15;;;;;;;44.00;30.20;;;18.20;99.90;;;;;;5067267;28;20040;-55
2023/06/29 00:44:41;;;;;;;48.40;32.20;;;18.00;99.90;;;;;;5059605;28;20113;-56
2023/06/29 00:47:08;;;;;;;46.58;29.85;;;18.00;99.90;;;;;;5058208;28;20037;-57
2023/06/29 00:49:33;;;;;;;51.65;33.00;;;18.10;99.90;;;;;;5059728;28;20041;-55
2023/06/29 00:51:59;;;;;;;48.20;31.17;;;18.00;99.90;;;;;;5058680;28;20056;-56
2023/06/29 00:54:25;;;;;;;47.33;30.67;;;17.90;99.90;;;;;;5059711;28;20599;-56
2023/06/29 00:56:52;;;;;;;47.15;31.98;;;18.10;99.90;;;;;;5061326;28;20033;-54
2023/06/29 00:59:18;;;;;;;43.38;30.48;;;18.10;99.90;;;;;;5075821;28;20063;-57
2023/06/29 01:01:45;;;;;;;49.38;32.40;;;18.10;99.90;;;;;;5057814;28;20104;-55
2023/06/29 01:04:24;;;;;;;49.30;32.17;;;17.90;99.90;;;;;;5059006;28;20532;-56
2023/06/29 01:07:02;;;;;;;46.65;32.67;;;18.00;99.90;;;;;;5059371;28;20045;-56
2023/06/29 01:09:29;;;;;;;49.63;32.85;;;18.10;99.90;;;;;;5058330;28;20064;-56
2023/06/29 01:11:57;;;;;;;50.58;32.42;;;18.00;99.90;;;;;;5059542;28;20057;-56
2023/06/29 01:14:25;;;;;;;51.95;33.22;;;18.20;99.90;;;;;;5057553;28;20048;-56
2023/06/29 01:16:52;;;;;;;49.17;31.73;;;18.20;99.90;;;;;;5058907;28;20049;-56
2023/06/29 01:19:24;;;;;;;50.28;32.50;;;18.00;99.90;;;;;;5059123;28;20053;-57
2023/06/29 01:22:04;;;;;;;48.42;32.20;;;18.10;99.90;;;;;;5068868;28;20040;-56
2023/06/29 01:24:43;;;;;;;49.15;33.03;;;18.00;99.90;;;;;;5066958;28;20068;-56
2023/06/29 01:27:10;;;;;;;49.03;33.45;;;18.00;99.90;;;;;;5058516;28;20056;-56
2023/06/29 01:29:36;;;;;;;53.65;34.30;;;18.20;99.90;;;;;;5058928;28;20047;-56
2023/06/29 01:32:03;;;;;;;51.78;33.97;;;18.00;99.90;;;;;;5057860;28;20049;-56
2023/06/29 01:34:34;;;;;;;52.60;34.10;;;18.00;99.90;;;;;;5065064;28;20044;-56
2023/06/29 01:37:14;;;;;;;53.08;34.83;;;18.00;99.90;;;;;;5071262;28;20053;-57
2023/06/29 01:40:01;;;;;;;54.65;34.70;;;17.90;99.90;;;;;;5057916;28;20509;-56
2023/06/29 01:42:29;;;;;;;47.58;33.00;;;18.00;99.90;;;;;;5057110;28;20097;-56
2023/06/29 01:44:56;;;;;;;52.60;34.65;;;17.90;99.90;;;;;;5058983;28;20072;-56
2023/06/29 01:47:22;;;;;;;50.25;34.97;;;18.10;99.90;;;;;;5058534;28;20123;-56
2023/06/29 01:49:48;;;;;;;52.25;33.97;;;17.90;99.90;;;;;;5059154;28;20048;-56
2023/06/29 01:52:14;;;;;;;51.67;32.33;;;17.90;99.90;;;;;;5057942;28;20547;-56
2023/06/29 01:54:40;;;;;;;49.58;34.03;;;18.00;99.90;;;;;;5057698;28;20053;-56
2023/06/29 01:57:07;;;;;;;51.17;35.15;;;17.90;99.90;;;;;;5058284;28;20077;-56
2023/06/29 01:59:33;;;;;;;50.88;34.08;;;17.90;99.90;;;;;;5058723;28;20102;-56
2023/06/29 02:01:59;;;;;;;52.25;34.58;;;17.90;99.90;;;;;;5058859;28;20172;-56
2023/06/29 02:04:24;;;;;;;50.40;34.03;;;18.00;99.90;;;;;;5058082;28;20512;-56
2023/06/29 02:06:50;;;;;;;50.80;34.30;;;18.10;99.90;;;;;;5058765;28;20033;-56
2023/06/29 02:09:16;;;;;;;54.17;35.17;;;18.00;99.90;;;;;;5057626;28;20071;-56
2023/06/29 02:11:41;;;;;;;49.20;34.30;;;18.10;99.90;;;;;;5058301;28;20059;-56
2023/06/29 02:14:07;;;;;;;53.55;32.95;;;17.90;99.90;;;;;;5057922;28;20048;-56
2023/06/29 02:16:33;;;;;;;52.67;35.20;;;17.90;99.90;;;;;;5057645;28;20091;-56
2023/06/29 02:18:58;;;;;;;48.03;33.75;;;17.90;99.90;;;;;;5058383;28;20128;-56
2023/06/29 02:21:24;;;;;;;51.58;34.17;;;17.80;99.90;;;;;;5058119;28;20052;-56
2023/06/29 02:23:50;;;;;;;52.10;34.22;;;18.00;99.90;;;;;;5058752;28;20057;-57
2023/06/29 02:26:16;;;;;;;49.25;33.03;;;17.80;99.90;;;;;;5060738;28;20052;-56
2023/06/29 02:28:42;;;;;;;48.30;32.58;;;18.10;99.90;;;;;;5062247;28;20120;-57
2023/06/29 02:31:07;;;;;;;55.17;34.65;;;18.10;99.90;;;;;;5061186;28;20106;-56
2023/06/29 02:33:33;;;;;;;48.55;31.50;;;17.90;99.90;;;;;;5066987;28;20071;-56
2023/06/29 02:35:59;;;;;;;48.80;32.95;;;18.00;99.90;;;;;;5072854;28;20119;-55
2023/06/29 02:38:24;;;;;;;51.78;33.70;;;18.10;99.90;;;;;;5061863;28;20041;-56
2023/06/29 02:40:50;;;;;;;54.67;35.60;;;18.00;99.90;;;;;;5062156;28;20045;-56
2023/06/29 02:43:16;;;;;;;54.33;34.53;;;17.90;99.90;;;;;;5061404;28;20531;-56
2023/06/29 02:45:42;;;;;;;52.58;33.33;;;17.90;99.90;;;;;;5062381;28;20044;-56
2023/06/29 02:48:07;;;;;;;48.00;33.33;;;18.00;99.90;;;;;;5061273;28;20038;-57
2023/06/29 02:50:33;;;;;;;50.20;34.80;;;17.80;99.90;;;;;;5062126;28;20448;-57
2023/06/29 02:52:59;;;;;;;51.40;34.70;;;17.90;99.90;;;;;;5061525;28;20045;-56
2023/06/29 02:55:25;;;;;;;48.03;33.25;;;17.90;99.90;;;;;;5061644;28;20033;-58
2023/06/29 02:57:51;;;;;;;51.20;33.72;;;18.00;99.90;;;;;;5073245;28;20051;-56
2023/06/29 03:00:17;;;;;;;50.33;33.03;;;17.90;99.90;;;;;;5060405;28;20075;-57
2023/06/29 03:02:42;;;;;;;52.47;33.35;;;18.00;99.90;;;;;;5061678;28;20531;-57
2023/06/29 03:05:08;;;;;;;53.38;33.45;;;18.00;99.90;;;;;;5060355;28;20056;-57
2023/06/29 03:07:34;;;;;;;48.92;32.63;;;17.80;99.90;;;;;;5061492;28;20101;-57
2023/06/29 03:10:00;;;;;;;51.08;34.13;;;17.90;99.90;;;;;;5060742;28;20041;-57
2023/06/29 03:12:26;;;;;;;51.95;34.88;;;18.00;99.90;;;;;;5061523;28;20275;-57
2023/06/29 03:14:51;;;;;;;49.28;32.63;;;17.80;99.90;;;;;;5061583;28;20056;-56
2023/06/29 03:17:17;;;;;;;47.55;31.95;;;18.00;99.90;;;;;;5060769;28;20246;-57
2023/06/29 03:19:44;;;;;;;53.08;33.88;;;17.90;99.90;;;;;;5061544;28;20516;-57
2023/06/29 03:22:10;;;;;;;46.13;32.40;;;17.80;99.90;;;;;;5066277;28;20041;-57
2023/06/29 03:24:36;;;;;;;43.08;30.70;;;17.90;99.90;;;;;;5073821;28;20547;-56
2023/06/29 03:27:02;;;;;;;51.75;33.40;;;18.10;99.90;;;;;;5060688;28;20048;-56
2023/06/29 03:29:28;;;;;;;50.17;33.33;;;17.80;99.90;;;;;;5061375;28;20484;-57
2023/06/29 03:31:53;;;;;;;47.55;32.97;;;18.00;99.90;;;;;;5062481;28;20135;-56
2023/06/29 03:34:19;;;;;;;46.53;31.05;;;17.80;99.90;;;;;;5068060;28;20037;-57
2023/06/29 03:36:44;;;;;;;44.63;30.45;;;17.90;99.90;;;;;;5068339;28;20123;-57
2023/06/29 03:39:10;;;;;;;42.67;30.58;;;18.00;99.90;;;;;;5079753;28;20077;-56
2023/06/29 03:41:36;;;;;;;51.10;32.97;;;18.00;99.90;;;;;;5081188;28;20048;-56
2023/06/29 03:44:02;;;;;;;48.75;31.52;;;18.10;99.90;;;;;;5080159;28;20076;-56
2023/06/29 03:46:27;;;;;;;50.50;32.35;;;18.00;99.90;;;;;;5081400;28;20512;-56
2023/06/29 03:48:53;;;;;;;47.20;30.92;;;17.80;99.90;;;;;;5080932;28;20024;-56
2023/06/29 03:51:19;;;;;;;51.47;34.17;;;17.90;99.90;;;;;;5080442;28;20036;-55
2023/06/29 03:53:44;;;;;;;42.83;29.88;;;18.10;99.90;;;;;;5079480;28;20036;-56
2023/06/29 03:56:10;;;;;;;45.10;31.70;;;18.00;99.90;;;;;;5079884;28;20047;-56
2023/06/29 03:58:36;;;;;;;46.38;31.80;;;18.00;99.90;;;;;;5080831;28;20146;-56
2023/06/29 04:01:02;;;;;;;46.80;32.33;;;18.10;99.90;;;;;;5078099;28;20056;-56
2023/06/29 04:03:28;;;;;;;44.97;31.45;;;17.90;99.90;;;;;;5080780;28;20100;-57
2023/06/29 04:05:53;;;;;;;42.65;29.50;;;18.00;99.90;;;;;;5059092;28;20132;-55
2023/06/29 04:08:19;;;;;;;45.78;30.85;;;18.00;99.90;;;;;;5059274;28;20485;-56
2023/06/29 04:10:45;;;;;;;45.42;30.98;;;18.10;99.90;;;;;;5063755;28;20067;-56
2023/06/29 04:13:10;;;;;;;42.65;29.77;;;18.00;99.90;;;;;;5065259;28;20101;-56
2023/06/29 04:15:36;;;;;;;42.55;29.02;;;18.00;99.90;;;;;;5069136;28;20070;-56
2023/06/29 04:18:02;;;;;;;46.85;31.77;;;18.20;99.90;;;;;;5063029;28;20111;-57
2023/06/29 04:20:28;;;;;;;42.58;30.77;;;18.10;99.90;;;;;;5058869;28;20041;-56
2023/06/29 04:22:55;;;;;;;40.53;30.40;;;18.10;99.90;;;;;;5059486;28;20569;-55
2023/06/29 04:25:21;;;;;;;43.33;30.65;;;18.20;99.90;;;;;;5060017;28;20121;-56
2023/06/29 04:27:46;;;;;;;44.42;29.88;;;18.30;99.90;;;;;;5060439;28;20068;-56
2023/06/29 04:30:12;;;;;;;43.00;29.83;;;18.20;99.90;;;;;;5059360;28;20045;-56
2023/06/29 04:32:39;;;;;;;38.20;28.00;;;18.20;99.90;;;;;;5062863;28;20045;-57
2023/06/29 04:35:05;;;;;;;45.33;30.35;;;18.30;99.90;;;;;;5071117;28;20071;-56
2023/06/29 04:37:41;;;;;;;39.88;28.65;;;18.40;99.90;;;;;;5071817;28;20120;-56
2023/06/29 04:40:09;;;;;;;41.33;30.00;;;18.50;99.90;;;;;;5059600;28;20056;-56
2023/06/29 04:42:46;;;;;;;40.47;28.65;;;18.40;99.90;;;;;;5059704;28;20045;-56
2023/06/29 04:45:17;;;;;;;40.97;27.35;;;18.50;99.90;;;;;;5072867;28;20044;-56
2023/06/29 04:47:49;;;;;;;42.33;27.50;;;18.50;99.90;;;;;;5078605;28;20044;-56
2023/06/29 04:50:15;;;;;;;42.55;27.42;;;18.60;99.90;;;;;;5080009;28;20059;-57
2023/06/29 04:52:42;;;;;;;43.58;26.40;;;18.60;99.90;;;;;;5078877;28;20048;-56
2023/06/29 04:55:09;;;;;;;38.13;26.35;;;18.50;99.90;;;;;;5079147;28;20059;-56
2023/06/29 04:57:36;;;;;;;39.92;26.13;;;18.60;99.90;;;;;;5069080;28;20071;-56
2023/06/29 05:00:06;;;;;;;41.10;24.65;;;18.50;99.90;;;;;;5070857;28;20800;-55
2023/06/29 05:02:32;;;;;;;40.95;27.23;;;18.70;99.90;;;;;;5059056;28;20104;-55
2023/06/29 05:04:58;;;;;;;38.05;24.88;;;18.60;99.90;;;;;;5058428;28;20137;-55
2023/06/29 05:07:23;;;;;;;37.97;24.13;;;18.60;99.90;;;;;;5059120;28;20117;-56
2023/06/29 05:09:49;;;;;;;38.95;24.55;;;18.60;99.90;;;;;;5057405;28;20579;-55
2023/06/29 05:12:15;;;;;;;34.15;23.83;;;18.60;99.90;;;;;;5056225;28;20039;-54
2023/06/29 05:14:40;;;;;;;34.83;23.55;;;18.60;99.90;;;;;;5055991;28;20130;-55
2023/06/29 05:17:06;;;;;;;36.65;23.90;;;18.70;99.90;;;;;;5055286;28;20155;-56
2023/06/29 05:19:32;;;;;;;34.03;24.13;;;18.60;99.90;;;;;;5054533;28;20064;-55
2023/06/29 05:21:58;;;;;;;33.85;22.50;;;18.70;99.90;;;;;;5058204;28;20044;-55
2023/06/29 05:24:25;;;;;;;31.98;22.45;;;18.80;99.90;;;;;;5073683;28;20037;-55
2023/06/29 05:26:50;;;;;;;32.25;22.65;;;18.90;99.90;;;;;;5053569;28;20044;-55
2023/06/29 05:29:16;;;;;;;37.50;24.33;;;18.90;99.90;;;;;;5056155;28;20063;-55
2023/06/29 05:31:41;;;;;;;36.28;23.70;;;18.90;99.90;;;;;;5054889;28;20140;-55
2023/06/29 05:34:07;;;;;;;34.28;23.77;;;18.90;99.90;;;;;;5063400;28;20056;-55
2023/06/29 05:36:33;;;;;;;32.65;22.45;;;19.10;99.90;;;;;;5065843;28;20091;-55
2023/06/29 05:38:59;;;;;;;35.78;23.35;;;19.10;99.90;;;;;;5053495;28;20052;-55
2023/06/29 05:41:24;;;;;;;32.85;22.60;;;19.00;99.90;;;;;;5054485;28;20049;-56
2023/06/29 05:43:50;;;;;;;32.17;22.08;;;19.00;99.90;;;;;;5054962;28;20037;-55
2023/06/29 05:46:15;;;;;;;29.17;21.02;;;19.10;99.90;;;;;;5055662;28;20039;-55
2023/06/29 05:48:41;;;;;;;30.05;20.50;;;19.20;99.90;;;;;;5055087;28;20047;-52
2023/06/29 05:51:07;;;;;;;31.17;21.92;;;19.10;99.90;;;;;;5055383;28;20071;-55
2023/06/29 05:53:33;;;;;;;32.10;22.10;;;19.00;99.90;;;;;;5055779;28;20030;-55
2023/06/29 05:55:58;;;;;;;29.45;20.48;;;19.30;99.90;;;;;;5054639;28;20053;-55
2023/06/29 05:58:24;;;;;;;30.38;19.88;;;19.40;99.90;;;;;;5055713;28;20052;-55
2023/06/29 06:00:51;;;;;;;32.28;21.13;;;19.40;99.90;;;;;;5056806;28;20068;-55
2023/06/29 06:03:18;;;;;;;30.85;20.92;;;19.50;99.90;;;;;;5059754;28;20203;-55
2023/06/29 06:05:44;;;;;;;28.10;19.98;;;19.60;99.90;;;;;;5059089;28;20104;-55
2023/06/29 06:08:09;;;;;;;30.45;19.63;;;19.50;99.90;;;;;;5064209;28;20709;-54
2023/06/29 06:10:35;;;;;;;32.47;20.17;;;19.60;99.90;;;;;;5072544;28;20047;-55
2023/06/29 06:13:02;;;;;;;30.63;20.88;;;19.60;99.90;;;;;;5065186;28;20049;-55
2023/06/29 06:15:28;;;;;;;31.13;20.67;;;19.50;99.90;;;;;;5068534;28;20059;-56
2023/06/29 06:17:54;;;;;;;28.15;19.10;;;19.60;99.90;;;;;;5064957;28;20072;-56
2023/06/29 06:20:19;;;;;;;27.80;19.10;;;19.60;99.90;;;;;;5067140;28;20506;-55
2023/06/29 06:22:45;;;;;;;28.92;19.58;;;19.60;99.90;;;;;;5062244;28;20048;-55
2023/06/29 06:25:11;;;;;;;29.52;19.23;;;19.70;99.90;;;;;;5058851;28;20393;-55
2023/06/29 06:27:37;;;;;;;30.73;19.60;;;19.70;99.90;;;;;;5057927;28;20582;-54
2023/06/29 06:30:04;;;;;;;29.80;19.17;;;19.60;99.90;;;;;;5056876;28;20068;-55
2023/06/29 06:32:30;;;;;;;30.45;19.85;;;19.70;99.90;;;;;;5061445;28;20106;-55
2023/06/29 06:34:56;;;;;;;27.70;19.45;;;19.70;99.90;;;;;;5076509;28;20123;-56
2023/06/29 06:37:21;;;;;;;29.35;19.98;;;19.80;99.90;;;;;;5058571;28;20072;-55
2023/06/29 06:39:47;;;;;;;30.27;19.23;;;19.90;99.90;;;;;;5071227;28;20062;-54
2023/06/29 06:42:13;;;;;;;33.00;22.20;;;19.90;99.90;;;;;;5077959;28;20386;-57
2023/06/29 06:44:52;;;;;;;28.33;18.15;;;19.90;99.90;;;;;;5078528;28;20041;-57
2023/06/29 06:47:18;;;;;;;28.98;19.33;;;19.90;99.90;;;;;;5077724;28;20049;-55
2023/06/29 06:49:46;;;;;;;29.63;19.38;;;20.00;99.90;;;;;;5079077;28;20083;-54
2023/06/29 06:52:11;;;;;;;32.55;19.85;;;20.10;99.90;;;;;;5077907;28;20062;-55
2023/06/29 06:54:37;;;;;;;30.25;19.95;;;20.00;99.90;;;;;;5078978;28;20037;-55
2023/06/29 06:57:03;;;;;;;32.90;20.10;;;19.90;99.90;;;;;;5077880;28;20045;-54
2023/06/29 06:59:28;;;;;;;29.52;19.17;;;20.00;99.90;;;;;;5067872;28;20044;-55
2023/06/29 07:01:54;;;;;;;36.70;20.02;;;20.00;99.90;;;;;;5068806;28;20052;-55
2023/06/29 07:04:20;;;;;;;29.88;20.08;;;20.00;99.90;;;;;;5077802;28;20062;-54
2023/06/29 07:06:46;;;;;;;28.77;18.17;;;20.10;99.90;;;;;;5078357;28;20057;-55
2023/06/29 07:09:12;;;;;;;34.08;20.45;;;20.10;99.90;;;;;;5069363;28;20579;-54
2023/06/29 07:11:38;;;;;;;33.45;20.60;;;20.00;99.90;;;;;;5065952;28;20037;-55
2023/06/29 07:14:05;;;;;;;30.25;19.95;;;20.00;99.90;;;;;;5069397;28;20118;-55
2023/06/29 07:16:30;;;;;;;32.85;20.42;;;20.10;99.90;;;;;;5078283;28;20040;-55
2023/06/29 07:19:08;;;;;;;30.48;19.73;;;20.10;99.90;;;;;;5078014;28;20066;-54
2023/06/29 07:21:34;;;;;;;31.60;19.95;;;20.00;99.90;;;;;;5064153;28;20049;-54
2023/06/29 07:24:00;;;;;;;32.00;20.48;;;20.00;99.90;;;;;;5068705;28;20045;-55
2023/06/29 07:26:26;;;;;;;30.65;19.98;;;20.10;99.90;;;;;;5063250;28;20125;-55
2023/06/29 07:28:52;;;;;;;29.30;20.25;;;20.10;99.90;;;;;;5067445;28;20404;-55
2023/06/29 07:31:18;;;;;;;29.77;19.98;;;20.20;99.90;;;;;;5059132;28;20053;-55
2023/06/29 07:33:43;;;;;;;29.33;20.67;;;20.10;99.90;;;;;;5064466;28;20067;-55
2023/06/29 07:36:09;;;;;;;32.42;20.50;;;20.30;99.90;;;;;;5066147;28;20041;-55
2023/06/29 07:38:35;;;;;;;31.52;19.98;;;20.40;99.90;;;;;;5056923;28;20076;-55
2023/06/29 07:41:03;;;;;;;31.88;20.02;;;20.50;99.90;;;;;;5057863;28;20045;-55
2023/06/29 07:43:29;;;;;;;33.22;20.88;;;20.40;99.90;;;;;;5055054;28;20773;-55
2023/06/29 07:45:55;;;;;;;33.00;21.25;;;20.60;99.90;;;;;;5057693;28;20072;-55
2023/06/29 07:48:21;;;;;;;33.88;21.17;;;20.60;99.90;;;;;;5058706;28;20047;-55
2023/06/29 07:50:46;;;;;;;31.75;20.83;;;20.70;99.90;;;;;;5070486;28;20524;-52
2023/06/29 07:53:12;;;;;;;35.38;22.92;;;20.60;99.90;;;;;;5060838;28;20499;-55
2023/06/29 07:55:38;;;;;;;35.70;22.50;;;20.70;99.90;;;;;;5067503;28;20087;-55
2023/06/29 07:58:03;;;;;;;34.65;22.10;;;20.70;99.90;;;;;;5056012;28;20045;-55
2023/06/29 08:00:29;;;;;;;31.38;20.40;;;20.70;99.90;;;;;;5058783;28;20060;-55
2023/06/29 08:02:54;;;;;;;30.58;20.13;;;20.70;99.90;;;;;;5061596;28;20131;-55
2023/06/29 08:05:22;;;;;;;31.70;21.42;;;20.70;99.90;;;;;;5062836;28;20066;-54
2023/06/29 08:07:49;;;;;;;33.20;21.67;;;20.70;99.90;;;;;;5059719;28;20093;-56
2023/06/29 08:10:15;;;;;;;30.67;20.45;;;20.70;99.90;;;;;;5069330;28;20052;-53
2023/06/29 08:12:41;;;;;;;32.17;21.65;;;20.80;99.90;;;;;;5060782;28;20052;-55
2023/06/29 08:15:07;;;;;;;36.65;22.95;;;20.90;99.90;;;;;;5059283;28;20206;-54
2023/06/29 08:17:33;;;;;;;35.70;23.05;;;20.90;99.90;;;;;;5057383;28;20041;-55
2023/06/29 08:19:59;;;;;;;33.67;21.35;;;21.00;99.90;;;;;;5064160;28;20528;-54
2023/06/29 08:22:25;;;;;;;36.25;22.42;;;21.00;99.90;;;;;;5060284;28;20052;-55
2023/06/29 08:24:51;;;;;;;32.95;22.15;;;21.00;99.90;;;;;;5066242;28;20033;-55
2023/06/29 08:27:17;;;;;;;35.70;22.50;;;21.10;99.90;;;;;;5065931;28;20044;-55
2023/06/29 08:29:43;;;;;;;35.35;22.50;;;21.10;99.90;;;;;;5063932;28;20048;-54
2023/06/29 08:32:09;;;;;;;33.92;23.20;;;21.10;99.90;;;;;;5071996;28;20099;-55
2023/06/29 08:34:34;;;;;;;33.40;21.73;;;21.10;99.90;;;;;;5074311;28;20072;-55
2023/06/29 08:37:00;;;;;;;37.00;23.30;;;21.20;99.90;;;;;;5073877;28;20082;-55
2023/06/29 08:39:26;;;;;;;34.30;23.20;;;21.20;99.90;;;;;;5064512;28;20040;-55
2023/06/29 08:41:52;;;;;;;33.92;22.52;;;21.30;99.90;;;;;;5077415;28;20033;-55
2023/06/29 08:44:18;;;;;;;32.83;21.55;;;21.20;99.90;;;;;;5066221;28;20056;-54
2023/06/29 08:46:46;;;;;;;32.15;23.35;;;21.20;99.90;;;;;;5069577;28;20045;-54
2023/06/29 08:49:14;;;;;;;35.13;23.27;;;21.10;99.90;;;;;;5072703;28;20121;-54
2023/06/29 08:51:43;;;;;;;33.88;23.63;;;21.20;99.90;;;;;;5068313;28;20043;-54
2023/06/29 08:54:11;;;;;;;36.08;23.90;;;21.20;99.90;;;;;;5069119;28;20040;-54
2023/06/29 08:56:37;;;;;;;34.88;24.17;;;21.10;99.90;;;;;;5058293;28;20033;-55
2023/06/29 08:59:04;;;;;;;38.13;24.27;;;21.10;99.90;;;;;;5059740;28;20044;-54
2023/06/29 09:01:31;;;;;;;33.47;24.08;;;21.10;99.90;;;;;;5059084;28;20063;-53
2023/06/29 09:03:58;;;;;;;34.60;23.33;;;21.10;99.90;;;;;;5057751;28;20048;-55
2023/06/29 09:06:24;;;;;;;34.00;23.05;;;21.00;99.90;;;;;;5059299;28;20049;-51
2023/06/29 09:08:49;;;;;;;35.83;23.67;;;21.00;99.90;;;;;;5059452;28;20067;-54
2023/06/29 09:11:15;;;;;;;35.20;23.20;;;21.10;99.90;;;;;;5062953;28;20033;-54
2023/06/29 09:13:42;;;;;;;36.20;23.63;;;21.10;99.90;;;;;;5060214;28;20089;-55
2023/06/29 09:16:08;;;;;;;36.30;25.92;;;21.20;99.90;;;;;;5066349;28;20049;-54
2023/06/29 09:18:34;;;;;;;36.90;25.35;;;21.10;99.90;;;;;;5065509;28;20048;-54
2023/06/29 09:21:00;;;;;;;39.38;25.83;;;21.20;99.90;;;;;;5070072;28;20110;-54
2023/06/29 09:23:26;;;;;;;37.38;25.30;;;21.20;99.90;;;;;;5063662;28;20059;-54
2023/06/29 09:25:55;;;;;;;39.47;25.38;;;21.30;99.90;;;;;;5075153;28;20044;-55
2023/06/29 09:28:20;;;;;;;36.75;25.48;;;21.30;99.90;;;;;;5062228;28;20417;-55
2023/06/29 09:30:49;;;;;;;35.03;24.45;;;21.30;99.90;;;;;;5068889;28;20036;-55
2023/06/29 09:33:15;;;;;;;35.35;24.45;;;21.30;99.90;;;;;;5074294;28;20040;-54
2023/06/29 09:35:51;;;;;;;32.53;22.67;;;21.30;99.90;;;;;;5077029;28;20048;-55
2023/06/29 09:38:18;;;;;;;37.17;25.13;;;21.20;99.90;;;;;;5040103;28;20080;-54
2023/06/29 09:40:48;;;;;;;38.17;25.92;;;21.20;99.90;;;;;;5059183;28;20040;-56
2023/06/29 09:43:28;;;;;;;32.40;23.33;;;21.00;99.90;;;;;;5058173;28;20060;-55
2023/06/29 09:46:13;;;;;;;34.65;23.15;;;21.00;99.90;;;;;;5058827;28;20056;-55
2023/06/29 09:48:47;;;;;;;31.33;22.63;;;21.00;99.90;;;;;;5057111;28;20083;-54
2023/06/29 09:51:23;;;;;;;35.60;24.38;;;21.00;99.90;;;;;;5058399;28;20048;-55
2023/06/29 09:53:49;;;;;;;35.65;25.10;;;20.90;99.90;;;;;;5058870;28;20047;-56
2023/06/29 09:56:16;;;;;;;32.10;22.60;;;20.80;99.90;;;;;;5057771;28;20569;-56
2023/06/29 09:58:42;;;;;;;34.55;23.95;;;20.90;99.90;;;;;;5058659;28;20060;-55
2023/06/29 10:01:09;;;;;;;34.80;23.65;;;20.90;99.90;;;;;;5058209;28;20057;-54
2023/06/29 10:03:35;;;;;;;33.42;23.33;;;20.90;99.90;;;;;;5058997;28;20057;-56
2023/06/29 10:06:08;;;;;;;33.38;24.48;;;20.90;99.90;;;;;;5066061;28;20495;-54
2023/06/29 10:08:35;;;;;;;31.92;23.02;;;20.90;99.90;;;;;;5076955;28;20041;-56
2023/06/29 10:11:03;;;;;;;29.55;20.83;;;20.80;99.90;;;;;;5075738;28;20886;-55
2023/06/29 10:13:31;;;;;;;34.90;23.70;;;20.90;99.90;;;;;;5077826;28;20105;-55
2023/06/29 10:15:59;;;;;;;33.42;24.15;;;20.80;99.90;;;;;;5073721;28;20029;-56
2023/06/29 10:18:32;;;;;;;32.35;23.50;;;20.70;99.90;;;;;;5066857;28;20396;-55
2023/06/29 10:20:58;;;;;;;33.25;24.05;;;20.70;99.90;;;;;;5062281;28;20036;-55
2023/06/29 10:23:25;;;;;;;31.10;22.98;;;20.50;99.90;;;;;;5070740;28;20041;-55
2023/06/29 10:25:51;;;;;;;31.73;23.60;;;20.50;99.90;;;;;;5057574;28;20408;-55
2023/06/29 10:28:19;;;;;;;34.25;25.20;;;20.50;99.90;;;;;;5058896;28;20053;-55
2023/06/29 10:30:50;;;;;;;36.35;24.83;;;20.40;99.90;;;;;;5062111;28;20047;-55
2023/06/29 10:33:23;;;;;;;;;;;20.30;99.90;;;;;;5067923;28;20041;-54
2023/06/29 10:35:59;;;;;;;35.25;26.33;;;20.20;99.90;;;;;;5078227;28;20632;-54
2023/06/29 10:38:35;;;;;;;34.90;26.33;;;20.10;99.90;;;;;;5077139;28;20063;-55
2023/06/29 10:41:04;;;;;;;38.22;26.25;;;20.10;99.90;;;;;;5078807;28;20044;-56
2023/06/29 10:43:57;;;;;;;38.70;27.80;;;20.00;99.90;;;;;;5077310;28;20036;-57
2023/06/29 10:46:45;;;;;;;35.38;26.33;;;20.20;99.90;;;;;;5080290;28;20173;-56
2023/06/29 10:49:28;;;;;;;35.67;26.33;;;20.20;99.90;;;;;;5082253;28;20377;-55
2023/06/29 10:52:04;;;;;;;36.08;26.15;;;20.40;99.90;;;;;;5080929;28;20043;-57
2023/06/29 10:54:30;;;;;;;37.60;26.40;;;20.40;99.90;;;;;;5081907;28;20069;-57
2023/06/29 10:57:07;;;;;;;38.85;27.17;;;20.60;99.90;;;;;;5081388;28;20041;-55
2023/06/29 10:59:34;;;;;;;38.70;27.60;;;20.80;99.90;;;;;;5081376;28;20045;-56
2023/06/29 11:02:00;;;;;;;36.90;26.63;;;21.00;99.90;;;;;;5081746;28;20059;-56
2023/06/29 11:04:27;;;;;;;36.58;26.83;;;21.10;99.90;;;;;;5080815;28;20847;-56
2023/06/29 11:06:53;;;;;;;35.33;26.65;;;21.10;99.90;;;;;;5079029;28;20086;-56
2023/06/29 11:09:19;;;;;;;34.25;25.48;;;21.00;99.90;;;;;;5063471;28;20045;-56
2023/06/29 11:11:49;;;;;;;37.25;25.95;;;21.10;99.90;;;;;;5074070;28;20033;-56
2023/06/29 11:14:15;;;;;;;37.30;25.17;;;21.10;99.90;;;;;;5074086;28;20066;-56
2023/06/29 11:16:41;;;;;;;38.28;26.60;;;21.00;99.90;;;;;;5077525;28;20044;-56
2023/06/29 11:19:07;;;;;;;35.15;25.85;;;21.00;99.90;;;;;;5080486;28;20032;-56
2023/06/29 11:21:33;;;;;;;37.42;25.95;;;20.90;99.90;;;;;;5079332;28;20036;-56
2023/06/29 11:23:59;;;;;;;38.67;27.10;;;20.90;99.90;;;;;;5080335;28;20059;-56
2023/06/29 11:26:26;;;;;;;36.28;27.15;;;20.80;99.90;;;;;;5076418;28;20040;-57
2023/06/29 11:28:53;;;;;;;38.15;27.20;;;20.80;99.90;;;;;;5079979;28;20103;-55
2023/06/29 11:31:22;;;;;;;39.22;29.58;;;20.70;99.90;;;;;;5079620;28;20053;-55
2023/06/29 11:33:52;;;;;;;36.90;26.73;;;20.80;99.90;;;;;;5075543;28;20048;-56
2023/06/29 11:36:31;;;;;;;37.70;27.73;;;20.90;99.90;;;;;;5079658;28;20054;-57
2023/06/29 11:39:04;;;;;;;41.80;29.15;;;21.10;99.90;;;;;;5077871;28;20057;-56
2023/06/29 11:41:31;;;;;;;35.45;27.65;;;21.30;99.90;;;;;;5077683;28;20071;-57
2023/06/29 11:44:00;;;;;;;37.40;27.90;;;21.40;99.90;;;;;;5079028;28;20040;-56
2023/06/29 11:46:26;;;;;;;39.20;28.55;;;21.40;99.90;;;;;;5077127;28;20516;-56
2023/06/29 11:48:55;;;;;;;41.33;29.63;;;21.80;99.90;;;;;;5079491;28;20090;-56
2023/06/29 11:51:25;;;;;;;41.90;29.77;;;21.90;99.90;;;;;;5078763;28;20037;-56
2023/06/29 11:53:55;;;;;;;45.72;31.67;;;21.90;99.90;;;;;;5079693;28;20037;-57
2023/06/29 11:56:40;;;;;;;43.17;31.25;;;21.80;99.90;;;;;;5076695;28;20080;-57
2023/06/29 11:59:15;;;;;;;42.60;31.15;;;21.90;99.90;;;;;;5075378;28;20067;-56
2023/06/29 12:01:43;;;;;;;42.95;30.25;;;22.00;99.90;;;;;;5080330;28;20419;-56
2023/06/29 12:04:09;;;;;;;38.92;28.80;;;22.20;99.90;;;;;;5075279;28;20575;-56
2023/06/29 12:06:53;;;;;;;42.70;29.95;;;22.20;99.90;;;;;;5063348;28;20037;-57
2023/06/29 12:09:18;;;;;;;41.45;30.23;;;22.20;99.90;;;;;;5062647;28;20048;-56
2023/06/29 12:11:44;;;;;;;40.53;28.83;;;22.20;99.90;;;;;;5074009;28;20055;-56
2023/06/29 12:14:11;;;;;;;39.08;28.50;;;22.40;99.90;;;;;;5059995;28;20045;-56
2023/06/29 12:16:43;;;;;;;39.95;27.63;;;22.50;99.90;;;;;;5060002;28;20217;-57
2023/06/29 12:19:12;;;;;;;40.38;29.27;;;22.70;99.90;;;;;;5063671;28;20073;-57
2023/06/29 12:21:37;;;;;;;43.70;29.13;;;22.70;99.90;;;;;;5071239;28;20044;-57
2023/06/29 12:24:05;;;;;;;40.55;29.17;;;22.90;99.90;;;;;;5066574;28;20085;-56
2023/06/29 12:26:31;;;;;;;42.40;31.00;;;23.00;99.90;;;;;;5065550;28;20037;-57
2023/06/29 12:28:57;;;;;;;39.25;27.58;;;22.90;99.90;;;;;;5069587;28;20411;-56